Time;durP1;ratioP1;P1;durP2;ratioP2;P2;SDS_P1;SDS_P2;PMS_P1;PMS_P2;Temp;Humidity;BMP_temperature;BMP_pressure;BME280_temperature;BME280_humidity;BME280_pressure;Samples;Min_cycle;Max_cycle;Signal;HPM_P1;HPM_P2
2022/10/01 00:02:14;;;;;;;14.93;9.90;;;;;;;8.93;100.00;98543.13;4954153;28;20196;-81
2022/10/01 00:04:42;;;;;;;11.83;9.60;;;;;;;8.97;100.00;98542.81;4986279;28;20750;-82
2022/10/01 00:07:14;;;;;;;12.87;10.20;;;;;;;8.83;100.00;98542.91;4979375;28;20193;-81
2022/10/01 00:09:43;;;;;;;12.40;10.27;;;;;;;8.77;100.00;98535.38;5003995;28;20222;-81
2022/10/01 00:12:14;;;;;;;13.43;10.03;;;;;;;8.92;100.00;98530.88;4973780;28;20192;-81
2022/10/01 00:14:44;;;;;;;15.17;10.77;;;;;;;8.92;100.00;98533.50;4911239;29;20198;-80
2022/10/01 00:17:15;;;;;;;15.13;11.50;;;;;;;8.83;100.00;98530.53;4896182;29;20195;-81
2022/10/01 00:19:44;;;;;;;13.47;10.70;;;;;;;8.99;100.00;98514.50;4895396;29;20230;-81
2022/10/01 00:22:14;;;;;;;16.73;11.00;;;;;;;8.92;100.00;98521.16;4895372;29;20250;-81
2022/10/01 00:24:44;;;;;;;14.17;10.50;;;;;;;8.77;100.00;98525.66;4897578;29;20243;-81
2022/10/01 00:27:13;;;;;;;16.27;11.10;;;;;;;8.63;100.00;98519.63;4898217;29;20229;-81
2022/10/01 00:29:44;;;;;;;15.10;11.40;;;;;;;8.56;100.00;98513.88;4904242;29;20290;-82
2022/10/01 00:32:14;;;;;;;13.23;11.20;;;;;;;8.66;100.00;98514.97;4933192;29;20271;-81
2022/10/01 00:34:45;;;;;;;15.20;11.03;;;;;;;8.73;100.00;98513.63;4934846;29;20227;-84
2022/10/01 00:37:17;;;;;;;15.40;12.23;;;;;;;8.69;100.00;98504.22;4929587;29;20193;-81
2022/10/01 00:39:47;;;;;;;17.77;12.40;;;;;;;8.67;100.00;98502.63;5010316;28;20217;-81
2022/10/01 00:42:17;;;;;;;16.00;11.50;;;;;;;8.56;100.00;98505.97;5051183;28;20197;-81
2022/10/01 00:44:46;;;;;;;16.40;11.80;;;;;;;8.58;100.00;98498.78;5053749;28;20197;-82
2022/10/01 00:47:25;;;;;;;19.83;12.20;;;;;;;8.63;100.00;98495.84;5047577;28;20659;-81
2022/10/01 00:49:59;;;;;;;14.57;12.10;;;;;;;8.52;100.00;98496.56;5048846;28;20196;-81
2022/10/01 00:52:41;;;;;;;16.30;12.27;;;;;;;8.53;100.00;98501.75;5053388;28;20200;-82
2022/10/01 00:55:13;;;;;;;15.37;11.80;;;;;;;8.56;100.00;98503.34;5005794;28;20209;-82
2022/10/01 00:57:44;;;;;;;15.37;11.37;;;;;;;8.61;100.00;98488.06;5011786;28;20344;-82
2022/10/01 01:00:15;;;;;;;15.67;12.27;;;;;;;8.53;100.00;98485.06;4987923;28;20198;-82
2022/10/01 01:02:46;;;;;;;13.27;10.93;;;;;;;8.66;100.00;98485.09;4986322;28;20282;-81
2022/10/01 01:05:15;;;;;;;15.00;11.37;;;;;;;8.58;100.00;98491.72;4984464;28;20195;-81
2022/10/01 01:07:51;;;;;;;15.63;11.20;;;;;;;8.69;100.00;98482.25;4989869;28;20295;-81
2022/10/01 01:10:28;;;;;;;15.17;11.70;;;;;;;8.70;100.00;98483.94;4987886;28;20226;-81
2022/10/01 01:13:11;;;;;;;13.93;11.23;;;;;;;8.68;100.00;98481.38;4913837;29;20193;-82
2022/10/01 01:15:48;;;;;;;16.87;12.50;;;;;;;8.59;100.00;98480.25;4911960;29;20210;-81
2022/10/01 01:18:22;;;;;;;14.37;11.57;;;;;;;8.63;100.00;98480.03;4921203;29;20205;-82
2022/10/01 01:21:03;;;;;;;14.63;11.57;;;;;;;8.74;100.00;98473.06;4980399;28;20199;-81
2022/10/01 01:23:48;;;;;;;13.30;11.60;;;;;;;8.64;100.00;98472.00;4991016;28;20254;-81
2022/10/01 01:26:31;;;;;;;16.27;12.07;;;;;;;8.66;100.00;98475.38;4960224;28;20188;-82
2022/10/01 01:29:06;;;;;;;17.00;11.60;;;;;;;8.65;100.00;98467.56;4968178;28;20214;-82
2022/10/01 01:31:40;;;;;;;15.03;10.67;;;;;;;8.72;100.00;98460.94;5013534;28;20268;-81
2022/10/01 01:34:12;;;;;;;15.10;11.17;;;;;;;8.66;100.00;98458.69;5029457;28;20194;-83
2022/10/01 01:36:47;;;;;;;15.57;11.57;;;;;;;8.68;100.00;98455.00;5033111;28;20201;-81
2022/10/01 01:39:19;;;;;;;15.03;11.07;;;;;;;8.77;100.00;98456.16;5028126;28;20233;-82
2022/10/01 01:41:51;;;;;;;12.80;10.57;;;;;;;8.80;100.00;98456.81;4968379;28;20196;-82
2022/10/01 01:44:28;;;;;;;14.07;10.33;;;;;;;8.87;100.00;98459.88;4968429;28;20222;-82
2022/10/01 01:46:59;;;;;;;14.73;10.90;;;;;;;8.76;100.00;98446.56;4978747;28;20198;-82
2022/10/01 01:49:29;;;;;;;14.03;10.23;;;;;;;8.69;100.00;98446.16;4978125;28;20222;-82
2022/10/01 01:52:04;;;;;;;15.37;10.10;;;;;;;8.77;100.00;98445.59;4978205;28;20199;-81
2022/10/01 01:54:34;;;;;;;14.90;10.23;;;;;;;8.74;100.00;98443.19;4970533;28;20207;-81
2022/10/01 01:57:05;;;;;;;12.27;9.20;;;;;;;8.74;100.00;98448.47;4967531;28;20215;-82
2022/10/01 01:59:36;;;;;;;12.50;9.17;;;;;;;8.96;100.00;98438.13;4967633;28;20199;-82
2022/10/01 02:02:06;;;;;;;13.50;9.20;;;;;;;8.92;100.00;98441.09;4975843;28;20302;-82
2022/10/01 02:04:41;;;;;;;9.17;8.17;;;;;;;8.91;100.00;98439.41;4950386;28;20231;-82
2022/10/01 02:07:41;;;;;;;10.40;7.60;;;;;;;8.92;100.00;98435.81;4972156;28;20247;-81
2022/10/01 02:10:26;;;;;;;10.47;7.30;;;;;;;9.10;100.00;98424.81;4969471;28;20762;-82
2022/10/01 02:13:12;;;;;;;13.37;7.83;;;;;;;9.06;100.00;98412.75;4979539;28;20286;-82
2022/10/01 02:15:56;;;;;;;8.93;7.27;;;;;;;9.40;100.00;98421.81;4979554;28;20199;-81
2022/10/01 02:18:33;;;;;;;9.17;7.33;;;;;;;9.36;100.00;98407.13;4975145;28;20208;-82
2022/10/01 02:21:11;;;;;;;8.67;6.90;;;;;;;9.43;100.00;98411.00;5044689;28;20224;-81
2022/10/01 02:23:45;;;;;;;11.73;7.07;;;;;;;9.50;100.00;98408.78;5051274;28;20220;-81
2022/10/01 02:26:19;;;;;;;8.73;6.70;;;;;;;9.44;100.00;98410.03;5043814;28;20197;-82
2022/10/01 02:28:51;;;;;;;6.97;5.80;;;;;;;9.41;100.00;98401.50;5026588;28;20237;-81
2022/10/01 02:31:24;;;;;;;6.93;5.67;;;;;;;9.49;100.00;98395.66;5022098;28;20197;-82
2022/10/01 02:33:57;;;;;;;7.07;5.57;;;;;;;9.58;100.00;98397.66;5026692;28;20236;-82
2022/10/01 02:36:30;;;;;;;7.73;5.53;;;;;;;9.75;100.00;98386.72;5027595;28;20205;-81
2022/10/01 02:39:02;;;;;;;5.87;5.13;;;;;;;9.75;100.00;98384.06;4978097;28;20198;-82
2022/10/01 02:41:35;;;;;;;6.23;4.80;;;;;;;9.84;100.00;98379.88;5023211;28;20198;-81
2022/10/01 02:44:07;;;;;;;6.23;4.87;;;;;;;9.94;100.00;98367.66;5024183;28;20222;-81
2022/10/01 02:46:52;;;;;;;6.40;4.97;;;;;;;9.90;100.00;98366.22;4980394;28;20201;-82
2022/10/01 02:49:20;;;;;;;7.97;4.43;;;;;;;9.96;100.00;98358.66;5029251;28;20268;-80
2022/10/01 02:51:59;;;;;;;5.20;4.33;;;;;;;9.96;100.00;98355.19;5032580;28;20202;-81
2022/10/01 02:54:33;;;;;;;9.17;5.37;;;;;;;9.89;100.00;98353.94;5015768;28;20276;-82
2022/10/01 02:59:47;;;;;;;12.63;6.90;;;;;;;9.63;100.00;98343.47;4988290;28;20219;-82
2022/10/01 03:02:20;;;;;;;8.27;7.07;;;;;;;9.64;100.00;98344.31;4949391;28;20207;-82
2022/10/01 03:04:51;;;;;;;10.50;7.47;;;;;;;9.63;100.00;98332.06;4990140;28;20230;-81
2022/10/01 03:07:19;;;;;;;13.33;8.30;;;;;;;9.53;100.00;98337.16;4990636;28;20226;-82
2022/10/01 03:09:49;;;;;;;13.07;9.50;;;;;;;9.63;100.00;98347.91;4996635;28;20250;-82
2022/10/01 03:12:19;;;;;;;12.40;9.27;;;;;;;9.59;100.00;98342.03;4932184;29;20665;-82
2022/10/01 03:14:47;;;;;;;13.63;9.70;;;;;;;9.54;100.00;98345.94;4932941;29;20193;-81
2022/10/01 03:17:18;;;;;;;11.23;9.57;;;;;;;9.62;100.00;98335.66;4950768;28;20211;-82
2022/10/01 03:19:47;;;;;;;15.53;10.67;;;;;;;9.57;100.00;98349.22;4949822;29;20189;-82
2022/10/01 03:22:21;;;;;;;16.43;11.00;;;;;;;9.51;100.00;98357.59;4950093;28;20227;-81
2022/10/01 03:24:50;;;;;;;16.73;10.63;;;;;;;9.52;100.00;98351.34;4949189;29;20246;-82
2022/10/01 03:27:19;;;;;;;15.33;11.37;;;;;;;9.50;100.00;98363.84;4951027;28;20196;-82
2022/10/01 03:29:48;;;;;;;16.70;11.57;;;;;;;9.43;100.00;98367.88;4942639;29;20246;-82
2022/10/01 03:32:19;;;;;;;18.03;12.50;;;;;;;9.43;100.00;98374.00;4928330;28;20672;-82
2022/10/01 03:34:51;;;;;;;15.80;13.17;;;;;;;9.34;100.00;98373.81;4914100;29;20280;-82
2022/10/01 03:37:20;;;;;;;15.47;12.70;;;;;;;9.28;100.00;98375.13;4929633;28;20198;-82
2022/10/01 03:39:49;;;;;;;18.30;13.93;;;;;;;9.19;100.00;98381.06;4922736;28;20252;-82
2022/10/01 03:42:18;;;;;;;17.03;13.57;;;;;;;9.20;100.00;98373.97;4908483;28;20259;-81
2022/10/01 03:44:46;;;;;;;19.57;13.53;;;;;;;9.16;100.00;98381.25;4882088;29;20224;-81
2022/10/01 03:47:16;;;;;;;17.63;14.57;;;;;;;9.18;100.00;98368.81;4912554;29;20317;-81
2022/10/01 03:49:46;;;;;;;20.63;14.53;;;;;;;9.22;100.00;98378.19;4924899;28;20175;-79
2022/10/01 03:52:16;;;;;;;20.53;14.73;;;;;;;9.03;100.00;98369.88;4920206;28;20202;-82
2022/10/01 03:54:44;;;;;;;18.13;15.17;;;;;;;8.95;100.00;98374.84;4928400;28;20248;-82
2022/10/01 03:57:12;;;;;;;17.70;15.73;;;;;;;9.00;100.00;98380.66;4925165;29;20212;-81
2022/10/01 03:59:41;;;;;;;21.17;15.93;;;;;;;9.02;100.00;98378.75;4937030;28;20248;-82
2022/10/01 04:02:09;;;;;;;21.37;15.13;;;;;;;9.10;100.00;98381.69;4931811;29;20205;-82
2022/10/01 04:04:38;;;;;;;19.40;16.40;;;;;;;9.01;100.00;98377.06;4930318;29;20221;-82
2022/10/01 04:07:08;;;;;;;20.10;16.23;;;;;;;9.09;100.00;98374.72;4936326;28;20181;-82
2022/10/01 04:09:37;;;;;;;21.60;16.87;;;;;;;9.12;100.00;98369.22;4940072;28;20223;-82
2022/10/01 04:12:07;;;;;;;21.13;17.30;;;;;;;9.07;100.00;98385.41;4972853;28;20202;-82
2022/10/01 04:14:35;;;;;;;21.30;16.40;;;;;;;9.06;100.00;98372.28;5002313;28;20196;-82
2022/10/01 04:17:03;;;;;;;21.30;16.07;;;;;;;9.04;100.00;98368.91;4979428;28;20208;-82
2022/10/01 04:19:32;;;;;;;19.53;16.27;;;;;;;8.96;100.00;98373.88;4919192;28;20248;-82
2022/10/01 04:22:01;;;;;;;21.60;16.23;;;;;;;8.97;100.00;98376.41;4917920;28;20256;-82
2022/10/01 04:24:31;;;;;;;19.47;16.73;;;;;;;8.98;100.00;98379.94;4914762;28;20198;-82
2022/10/01 04:26:59;;;;;;;21.33;17.17;;;;;;;8.93;100.00;98371.47;4913682;29;20300;-83
2022/10/01 04:29:28;;;;;;;23.83;17.63;;;;;;;8.97;100.00;98376.41;4909488;29;20194;-82
2022/10/01 04:31:57;;;;;;;20.50;15.57;;;;;;;9.01;100.00;98372.63;4908958;29;20202;-82
2022/10/01 04:34:51;;;;;;;21.63;17.23;;;;;;;8.99;100.00;98366.59;4908878;29;20267;-83
2022/10/01 04:37:13;;;;;;;23.17;17.43;;;;;;;8.96;100.00;98356.25;4924352;28;20208;-84
2022/10/01 04:39:43;;;;;;;21.57;16.67;;;;;;;9.04;100.00;98371.56;4962097;28;20235;-84
2022/10/01 04:42:12;;;;;;;21.30;16.50;;;;;;;8.94;100.00;98370.50;4953677;29;20620;-84
2022/10/01 04:44:40;;;;;;;20.43;17.27;;;;;;;9.00;100.00;98368.28;4956606;28;20189;-84
2022/10/01 04:47:09;;;;;;;23.07;17.20;;;;;;;8.94;100.00;98363.44;4960475;28;20254;-84
2022/10/01 04:49:37;;;;;;;21.47;17.43;;;;;;;8.96;100.00;98356.25;4963737;28;20228;-84
2022/10/01 04:52:06;;;;;;;21.33;17.50;;;;;;;8.92;100.00;98362.69;4958348;28;20662;-85
2022/10/01 04:54:34;;;;;;;21.77;17.80;;;;;;;8.98;100.00;98353.53;4965634;28;20234;-84
2022/10/01 04:57:04;;;;;;;23.20;17.17;;;;;;;9.02;100.00;98358.47;4966265;28;20215;-84
2022/10/01 04:59:32;;;;;;;20.93;17.50;;;;;;;8.99;100.00;98363.97;4982795;28;20196;-84
2022/10/01 05:02:01;;;;;;;20.30;16.77;;;;;;;9.03;100.00;98368.06;4980534;28;20206;-84
2022/10/01 05:04:29;;;;;;;24.53;17.87;;;;;;;8.96;100.00;98363.31;4978431;28;20196;-84
2022/10/01 05:06:58;;;;;;;20.50;17.10;;;;;;;8.98;100.00;98357.00;4975820;28;20246;-85
2022/10/01 05:09:26;;;;;;;22.07;17.87;;;;;;;9.00;100.00;98356.88;4973542;28;20208;-84
2022/10/01 05:11:57;;;;;;;22.10;17.47;;;;;;;8.90;100.00;98359.34;4944070;28;20562;-84
2022/10/01 05:14:26;;;;;;;20.80;17.70;;;;;;;8.93;100.00;98364.38;4926621;29;20232;-83
2022/10/01 05:16:55;;;;;;;22.97;17.47;;;;;;;8.93;100.00;98360.91;4936913;28;20221;-84
2022/10/01 05:19:23;;;;;;;22.67;17.77;;;;;;;8.93;100.00;98361.75;4940766;29;20228;-84
2022/10/01 05:21:55;;;;;;;22.97;19.07;;;;;;;8.94;100.00;98358.16;4978224;28;20198;-84
2022/10/01 05:24:23;;;;;;;24.00;18.00;;;;;;;8.95;100.00;98343.16;4992992;28;20222;-84
2022/10/01 05:26:52;;;;;;;22.60;18.17;;;;;;;9.01;100.00;98337.44;4992197;28;20215;-84
2022/10/01 05:29:21;;;;;;;22.20;18.50;;;;;;;8.93;100.00;98335.34;4959137;28;20223;-84
2022/10/01 05:31:52;;;;;;;25.13;19.13;;;;;;;8.95;100.00;98330.78;4985559;28;20685;-84
2022/10/01 05:34:20;;;;;;;21.70;18.37;;;;;;;9.04;100.00;98329.28;4982418;28;20331;-84
2022/10/01 05:36:49;;;;;;;21.73;18.70;;;;;;;8.98;100.00;98320.03;4985684;28;20226;-83
2022/10/01 05:39:17;;;;;;;22.37;18.67;;;;;;;8.92;100.00;98323.09;4977909;28;20204;-84
2022/10/01 05:41:45;;;;;;;21.87;17.93;;;;;;;8.90;100.00;98303.88;4928410;29;20182;-84
2022/10/01 05:44:14;;;;;;;23.63;17.67;;;;;;;8.93;100.00;98302.81;4943415;28;20233;-84
2022/10/01 05:46:46;;;;;;;20.47;17.30;;;;;;;8.95;100.00;98298.25;4931464;28;20248;-84
2022/10/01 05:49:17;;;;;;;19.53;16.13;;;;;;;8.85;100.00;98303.34;4928569;28;20233;-83
2022/10/01 05:51:47;;;;;;;21.07;15.93;;;;;;;8.92;100.00;98303.75;4940842;28;20201;-83
2022/10/01 05:54:19;;;;;;;20.27;15.73;;;;;;;8.96;100.00;98298.13;4941954;28;20271;-83
2022/10/01 05:56:50;;;;;;;18.77;14.60;;;;;;;9.00;100.00;98310.19;4946729;28;20198;-83
2022/10/01 05:59:19;;;;;;;16.87;14.53;;;;;;;9.00;100.00;98328.69;4931966;29;20198;-82
2022/10/01 06:01:47;;;;;;;15.93;13.50;;;;;;;9.14;100.00;98336.44;4949025;28;20194;-82
2022/10/01 06:04:18;;;;;;;16.73;12.93;;;;;;;9.14;100.00;98333.81;4940903;28;20198;-82
2022/10/01 06:06:47;;;;;;;17.27;13.17;;;;;;;9.15;100.00;98339.94;4935165;28;20271;-82
2022/10/01 06:09:15;;;;;;;20.80;12.63;;;;;;;9.21;100.00;98339.50;5010478;28;20225;-81
2022/10/01 06:11:45;;;;;;;16.10;12.53;;;;;;;9.23;100.00;98356.09;4971887;28;20228;-82
2022/10/01 06:14:23;;;;;;;12.70;11.23;;;;;;;9.23;100.00;98347.31;4949330;28;20220;-82
2022/10/01 06:16:53;;;;;;;14.40;11.30;;;;;;;9.24;100.00;98360.41;4951119;28;20228;-82
2022/10/01 06:19:24;;;;;;;15.97;11.27;;;;;;;9.27;100.00;98356.72;4932976;29;20244;-83
2022/10/01 06:21:52;;;;;;;13.13;11.00;;;;;;;9.28;100.00;98356.63;4935733;28;20591;-82
2022/10/01 06:24:21;;;;;;;13.90;12.00;;;;;;;9.34;100.00;98335.03;4941868;28;20192;-82
2022/10/01 06:26:49;;;;;;;13.50;11.33;;;;;;;9.38;100.00;98338.31;4952979;28;20227;-83
2022/10/01 06:29:18;;;;;;;12.77;11.03;;;;;;;9.34;100.00;98323.59;4973375;28;20238;-83
2022/10/01 06:31:52;;;;;;;13.70;10.80;;;;;;;9.36;100.00;98324.34;4930644;29;20228;-82
2022/10/01 06:34:21;;;;;;;12.37;10.53;;;;;;;9.32;100.00;98299.94;4931675;29;20243;-82
2022/10/01 06:36:51;;;;;;;13.33;10.37;;;;;;;9.40;100.00;98276.44;4931280;29;20194;-82
2022/10/01 06:39:22;;;;;;;13.40;10.27;;;;;;;9.31;100.00;98249.84;4965164;28;20197;-82
2022/10/01 06:41:51;;;;;;;11.10;9.93;;;;;;;9.30;100.00;98248.16;4890923;28;20196;-83
2022/10/01 06:44:22;;;;;;;12.67;10.47;;;;;;;9.29;100.00;98247.31;4881310;29;20359;-83
2022/10/01 06:46:52;;;;;;;12.73;9.40;;;;;;;9.31;100.00;98253.34;4885262;29;20222;-83
2022/10/01 06:49:21;;;;;;;11.77;8.80;;;;;;;9.41;100.00;98262.28;4940472;28;20718;-83
2022/10/01 06:54:38;;;;;;;10.80;8.63;;;;;;;9.43;100.00;98263.00;4975310;28;20192;-83
2022/10/01 06:57:08;;;;;;;11.07;8.87;;;;;;;9.45;100.00;98261.06;4959824;28;20216;-83
2022/10/01 06:59:40;;;;;;;9.93;8.80;;;;;;;9.53;100.00;98246.47;4960049;28;20902;-82
2022/10/01 07:02:20;;;;;;;9.67;8.37;;;;;;;9.53;100.00;98214.75;4988995;28;20254;-82
2022/10/01 07:04:50;;;;;;;8.97;8.07;;;;;;;9.46;100.00;98157.06;4992678;28;20234;-83
2022/10/01 07:07:20;;;;;;;10.77;7.83;;;;;;;9.51;100.00;98126.78;4986603;28;20237;-83
2022/10/01 07:09:49;;;;;;;8.77;7.13;;;;;;;9.52;100.00;98190.09;5028478;28;20264;-83
2022/10/01 07:12:43;;;;;;;8.23;7.37;;;;;;;9.58;100.00;98253.09;5026521;28;20673;-83
2022/10/01 07:15:12;;;;;;;11.57;9.83;;;;;;;9.55;100.00;98241.88;4991545;28;20285;-83
2022/10/01 07:17:44;;;;;;;24.27;13.57;;;;;;;9.54;100.00;98230.47;4983370;28;20662;-83
2022/10/01 07:20:16;;;;;;;10.80;8.30;;;;;;;9.64;100.00;98222.69;4986635;28;20245;-83
2022/10/01 07:22:48;;;;;;;7.70;6.83;;;;;;;9.55;100.00;98218.94;4990293;28;20257;-83
2022/10/01 07:25:17;;;;;;;8.03;6.50;;;;;;;9.63;100.00;98211.28;4991445;28;20213;-83
2022/10/01 07:27:45;;;;;;;7.33;6.50;;;;;;;9.65;100.00;98232.31;4988213;28;20222;-82
2022/10/01 07:30:14;;;;;;;8.43;7.60;;;;;;;9.62;100.00;98236.03;4989157;28;20197;-82
2022/10/01 07:32:46;;;;;;;11.53;9.77;;;;;;;9.75;100.00;98244.75;4984432;28;20195;-82
2022/10/01 07:35:16;;;;;;;8.53;7.00;;;;;;;9.72;100.00;98236.19;4989851;28;20203;-83
2022/10/01 07:37:50;;;;;;;8.80;7.53;;;;;;;9.75;100.00;98255.34;4971544;28;20322;-83
2022/10/01 07:40:20;;;;;;;11.60;7.77;;;;;;;9.73;100.00;98237.88;4928544;29;20214;-82
2022/10/01 07:42:55;;;;;;;14.93;8.37;;;;;;;9.73;100.00;98233.44;4989077;28;20207;-81
2022/10/01 07:45:27;;;;;;;11.63;8.80;;;;;;;9.71;100.00;98247.72;4983662;28;20202;-82
2022/10/01 07:47:58;;;;;;;11.10;7.47;;;;;;;9.72;100.00;98236.19;4948627;29;20260;-83
2022/10/01 07:50:30;;;;;;;12.03;9.90;;;;;;;9.81;100.00;98245.25;4950244;29;20248;-83
2022/10/01 07:53:01;;;;;;;11.50;7.77;;;;;;;9.81;100.00;98232.84;4953058;29;20212;-84
2022/10/01 07:55:31;;;;;;;9.37;6.90;;;;;;;9.76;100.00;98237.66;4893310;29;20275;-82
2022/10/01 07:58:01;;;;;;;7.40;6.67;;;;;;;9.82;100.00;98231.91;4890835;29;20283;-84
2022/10/01 08:00:31;;;;;;;10.57;6.83;;;;;;;9.84;100.00;98229.97;4897418;29;20202;-82
2022/10/01 08:03:00;;;;;;;6.33;5.73;;;;;;;9.81;100.00;98238.13;4838555;29;20224;-82
2022/10/01 08:05:30;;;;;;;7.40;6.33;;;;;;;9.85;100.00;98229.03;4845947;29;20211;-82
2022/10/01 08:08:04;;;;;;;6.90;6.20;;;;;;;9.89;100.00;98237.56;4905856;29;20233;-84
2022/10/01 08:10:37;;;;;;;9.67;6.87;;;;;;;9.89;100.00;98243.69;4932245;29;20256;-83
2022/10/01 08:13:13;;;;;;;8.57;5.70;;;;;;;9.87;100.00;98236.84;4937784;28;20215;-82
2022/10/01 08:15:45;;;;;;;6.10;5.50;;;;;;;9.95;100.00;98234.47;4970184;28;20202;-82
2022/10/01 08:18:16;;;;;;;6.33;5.70;;;;;;;10.08;100.00;98229.91;4932274;29;20245;-81
2022/10/01 08:20:46;;;;;;;6.60;5.40;;;;;;;10.05;100.00;98235.44;4928651;29;20232;-82
2022/10/01 08:23:17;;;;;;;6.93;5.67;;;;;;;10.06;100.00;98245.06;4929818;29;20190;-81
2022/10/01 08:25:48;;;;;;;6.60;5.37;;;;;;;10.01;100.00;98265.72;4931421;29;20203;-81
2022/10/01 08:28:17;;;;;;;6.40;5.23;;;;;;;10.06;100.00;98260.09;4971763;28;20265;-82
2022/10/01 08:30:45;;;;;;;5.73;5.13;;;;;;;10.02;100.00;98270.91;5011591;28;20197;-81
2022/10/01 08:33:14;;;;;;;5.93;5.00;;;;;;;9.95;100.00;98279.44;5008162;28;20198;-82
2022/10/01 08:35:43;;;;;;;5.20;4.67;;;;;;;10.11;100.00;98277.28;5009519;28;20241;-83
2022/10/01 08:38:14;;;;;;;5.47;4.97;;;;;;;10.22;100.00;98279.16;5006839;28;20191;-83
2022/10/01 08:40:48;;;;;;;6.07;4.67;;;;;;;10.17;100.00;98276.84;5008636;28;20191;-82
2022/10/01 08:43:30;;;;;;;5.53;4.90;;;;;;;10.20;100.00;98283.69;5019477;28;20210;-82
2022/10/01 08:46:05;;;;;;;6.23;4.40;;;;;;;10.12;100.00;98278.97;5049760;28;20200;-82
2022/10/01 08:48:53;;;;;;;5.50;4.33;;;;;;;10.20;100.00;98279.22;5051826;28;20219;-82
2022/10/01 08:51:31;;;;;;;3.77;3.47;;;;;;;10.25;100.00;98277.13;5053554;28;20219;-82
2022/10/01 08:54:08;;;;;;;8.57;6.33;;;;;;;10.21;100.00;98265.03;5033503;28;20193;-84
2022/10/01 08:56:46;;;;;;;5.00;4.30;;;;;;;10.32;100.00;98259.78;5044142;28;20205;-82
2022/10/01 08:59:28;;;;;;;6.43;4.57;;;;;;;10.30;100.00;98260.88;5055415;28;20274;-83
2022/10/01 09:01:58;;;;;;;5.63;5.00;;;;;;;10.29;100.00;98256.56;5033922;28;20200;-83
2022/10/01 09:04:29;;;;;;;9.73;8.23;;;;;;;10.37;100.00;98254.16;5046982;28;20193;-82
2022/10/01 09:07:05;;;;;;;8.30;5.50;;;;;;;10.39;100.00;98248.75;5043403;28;20217;-82
2022/10/01 09:09:45;;;;;;;11.40;6.93;;;;;;;10.42;100.00;98251.13;5049534;28;20184;-82
2022/10/01 09:12:31;;;;;;;9.50;6.80;;;;;;;10.50;100.00;98254.88;4968983;28;20569;-82
2022/10/01 09:15:15;;;;;;;7.50;5.03;;;;;;;10.57;100.00;98256.09;4973986;28;20188;-82
2022/10/01 09:17:55;;;;;;;11.37;6.43;;;;;;;10.52;100.00;98254.78;4972377;28;20264;-82
2022/10/01 09:20:27;;;;;;;10.50;7.23;;;;;;;10.60;100.00;98258.47;5028704;28;20198;-82
2022/10/01 09:23:18;;;;;;;7.77;5.00;;;;;;;10.64;100.00;98263.56;5029742;28;20554;-82
2022/10/01 09:25:52;;;;;;;5.27;3.37;;;;;;;10.66;100.00;98259.81;5009047;28;20194;-82
2022/10/01 09:28:29;;;;;;;4.73;4.27;;;;;;;10.70;100.00;98271.84;5019784;28;20308;-82
2022/10/01 09:31:04;;;;;;;7.80;4.80;;;;;;;10.73;100.00;98265.50;5031604;28;20189;-82
2022/10/01 09:33:35;;;;;;;5.30;4.17;;;;;;;10.77;100.00;98258.97;4950607;29;20212;-82
2022/10/01 09:36:18;;;;;;;5.13;4.00;;;;;;;10.85;100.00;98260.06;4952187;29;20297;-82
2022/10/01 09:38:58;;;;;;;6.80;4.20;;;;;;;10.85;100.00;98259.22;4928710;29;20233;-83
2022/10/01 09:41:30;;;;;;;4.30;3.47;;;;;;;10.86;100.00;98261.72;4918354;29;20724;-82
2022/10/01 09:44:03;;;;;;;4.03;3.60;;;;;;;10.91;100.00;98258.72;4934125;28;20280;-82
2022/10/01 09:46:33;;;;;;;3.97;3.50;;;;;;;10.88;100.00;98261.59;4946365;28;20734;-81
2022/10/01 09:49:10;;;;;;;4.10;3.40;;;;;;;10.85;100.00;98262.69;4912005;29;20312;-82
2022/10/01 09:51:48;;;;;;;4.00;3.60;;;;;;;10.84;100.00;98244.28;4948181;28;20195;-81
2022/10/01 09:54:26;;;;;;;6.57;4.50;;;;;;;10.91;100.00;98258.72;4969709;28;20187;-82
2022/10/01 09:57:00;;;;;;;4.67;3.50;;;;;;;10.85;100.00;98261.84;4972011;28;20203;-82
2022/10/01 09:59:38;;;;;;;4.17;3.77;;;;;;;10.95;100.00;98260.16;4969892;28;20287;-82
2022/10/01 10:02:18;;;;;;;5.30;4.30;;;;;;;10.87;100.00;98260.75;4972206;28;20192;-82
2022/10/01 10:04:48;;;;;;;3.53;3.23;;;;;;;10.93;100.00;98261.25;4956219;28;20219;-82
2022/10/01 10:07:19;;;;;;;4.80;4.07;;;;;;;11.02;100.00;98255.22;5019113;28;20239;-82
2022/10/01 10:09:53;;;;;;;4.07;3.67;;;;;;;11.08;100.00;98260.00;5003174;28;20894;-84
2022/10/01 10:12:29;;;;;;;4.63;4.23;;;;;;;11.29;100.00;98266.25;4972274;28;20192;-82
2022/10/01 10:15:08;;;;;;;6.43;4.10;;;;;;;11.20;100.00;98268.81;5019780;28;20217;-82
2022/10/01 10:17:43;;;;;;;6.27;3.43;;;;;;;11.22;100.00;98259.75;5030858;28;20673;-82
2022/10/01 10:20:29;;;;;;;5.03;3.50;;;;;;;11.38;100.00;98249.56;5026237;28;20186;-82
2022/10/01 10:23:15;;;;;;;5.70;4.10;;;;;;;11.43;100.00;98265.09;5014685;28;20171;-82
2022/10/01 10:25:55;;;;;;;3.90;3.30;;;;;;;11.44;100.00;98261.47;5009981;28;20210;-83
2022/10/01 10:28:26;;;;;;;7.73;4.07;;;;;;;11.56;100.00;98263.13;4952671;29;20671;-81
2022/10/01 10:31:00;;;;;;;13.47;7.13;;;;;;;11.64;100.00;98259.84;4933347;29;20216;-82
2022/10/01 10:33:34;;;;;;;16.03;7.03;;;;;;;11.67;100.00;98267.53;4943351;28;20201;-81
2022/10/01 10:36:08;;;;;;;9.37;4.90;;;;;;;11.77;100.00;98265.81;4899075;29;20198;-81
2022/10/01 10:38:44;;;;;;;6.17;3.60;;;;;;;11.89;100.00;98267.50;4894113;29;20198;-81
2022/10/01 10:41:18;;;;;;;4.97;4.00;;;;;;;11.96;100.00;98273.09;4878199;29;20205;-81
2022/10/01 10:43:49;;;;;;;6.17;3.77;;;;;;;11.94;100.00;98267.94;4895742;29;20205;-82
2022/10/01 10:46:30;;;;;;;4.40;2.67;;;;;;;11.87;100.00;98276.53;4867194;29;20210;-81
2022/10/01 10:49:07;;;;;;;6.20;3.43;;;;;;;12.01;100.00;98271.75;4895554;29;20252;-81
2022/10/01 10:51:54;;;;;;;4.53;2.33;;;;;;;12.00;100.00;98288.66;4894053;29;20194;-82
2022/10/01 10:54:28;;;;;;;2.20;2.00;;;;;;;11.93;100.00;98276.84;4898607;29;20722;-81
2022/10/01 10:57:01;;;;;;;3.83;1.70;;;;;;;12.13;100.00;98269.88;4892801;29;20254;-80
2022/10/01 10:59:34;;;;;;;6.50;5.80;;;;;;;12.08;100.00;98277.41;4887967;29;20191;-81
2022/10/01 11:02:16;;;;;;;1.70;1.30;;;;;;;12.15;100.00;98278.53;4935273;28;20191;-82
2022/10/01 11:04:48;;;;;;;3.63;1.40;;;;;;;12.25;100.00;98275.94;4971020;28;20206;-81
2022/10/01 11:07:21;;;;;;;1.10;1.00;;;;;;;12.32;100.00;98272.66;5032630;28;20197;-81
2022/10/01 11:10:06;;;;;;;2.50;1.30;;;;;;;12.31;100.00;98270.13;4979847;28;20247;-82
2022/10/01 11:13:01;;;;;;;2.07;1.30;;;;;;;12.31;100.00;98265.66;5045287;28;20211;-81
2022/10/01 11:15:45;;;;;;;3.00;1.10;;;;;;;12.46;100.00;98273.31;5065479;28;20217;-82
2022/10/01 11:18:32;;;;;;;3.27;1.20;;;;;;;12.49;100.00;98268.56;5064242;28;20706;-82
2022/10/01 11:21:18;;;;;;;1.27;1.10;;;;;;;12.44;100.00;98272.56;5019563;28;20249;-82
2022/10/01 11:24:06;;;;;;;2.37;1.10;;;;;;;12.56;100.00;98274.19;5021983;28;20193;-82
2022/10/01 11:26:49;;;;;;;2.07;1.10;;;;;;;12.59;100.00;98273.91;5017312;28;20312;-82
2022/10/01 11:29:34;;;;;;;2.07;1.17;;;;;;;12.66;100.00;98277.72;5029193;28;20222;-82
2022/10/01 11:32:14;;;;;;;1.63;1.50;;;;;;;12.76;100.00;98275.97;4953997;28;20199;-82
2022/10/01 11:35:15;;;;;;;3.47;2.77;;;;;;;12.85;100.00;98267.19;4954956;29;20200;-82
2022/10/01 11:38:18;;;;;;;1.43;1.03;;;;;;;12.90;100.00;98277.41;4922568;29;20201;-82
2022/10/01 11:41:07;;;;;;;1.43;1.00;;;;;;;13.03;100.00;98272.69;4937242;28;20279;-81
2022/10/01 11:43:43;;;;;;;1.70;1.07;;;;;;;13.01;100.00;98285.25;4935940;29;20237;-82
2022/10/01 11:46:17;;;;;;;1.63;0.80;;;;;;;13.05;100.00;98272.56;4929404;29;20285;-82
2022/10/01 11:48:56;;;;;;;1.27;1.17;;;;;;;13.11;100.00;98274.66;4941041;28;20657;-82
2022/10/01 11:51:34;;;;;;;1.10;0.97;;;;;;;13.27;100.00;98279.50;4915043;29;20197;-81
2022/10/01 11:54:10;;;;;;;1.30;1.20;;;;;;;13.36;100.00;98268.88;4855827;29;20223;-81
2022/10/01 11:59:48;;;;;;;2.07;1.30;;;;;;;13.60;100.00;98270.28;4896925;29;20234;-82